createdAt,value
2022-10-19T00:00:04.938Z,9.11
2022-10-19T00:01:13.315Z,9.53
2022-10-19T00:02:15.255Z,8.52
2022-10-19T00:03:20.721Z,10.23
2022-10-19T00:04:21.067Z,8.72
2022-10-19T00:05:23.035Z,9.55
2022-10-19T00:06:31.376Z,10.33
2022-10-19T00:07:34.370Z,10.39
2022-10-19T00:08:37.744Z,10.40
2022-10-19T00:09:42.929Z,12.43
2022-10-19T00:10:45.232Z,10.21
2022-10-19T00:11:49.620Z,7.69
2022-10-19T00:12:51.556Z,10.12
2022-10-19T00:13:55.665Z,8.43
2022-10-19T00:14:57.967Z,9.96
2022-10-19T00:16:00.244Z,8.87
2022-10-19T00:17:02.202Z,10.49
2022-10-19T00:18:04.193Z,9.89
2022-10-19T00:19:09.334Z,9.57
2022-10-19T00:20:12.082Z,12.09
2022-10-19T00:21:16.301Z,11.69
2022-10-19T00:22:18.228Z,10.39
2022-10-19T00:23:20.137Z,10.46
2022-10-19T00:24:22.052Z,9.80
2022-10-19T00:25:23.924Z,9.96
2022-10-19T00:26:26.426Z,11.21
2022-10-19T00:27:28.361Z,12.38
2022-10-19T00:28:31.010Z,12.04
2022-10-19T00:29:33.554Z,11.97
2022-10-19T00:30:36.896Z,10.33
2022-10-19T00:31:40.499Z,8.74
2022-10-19T00:32:42.730Z,12.24
2022-10-19T00:33:45.712Z,12.53
2022-10-19T00:34:47.980Z,8.46
2022-10-19T00:35:51.955Z,9.59
2022-10-19T00:36:54.168Z,9.75
2022-10-19T00:37:56.061Z,10.93
2022-10-19T00:38:59.548Z,8.43
2022-10-19T00:40:01.614Z,13.30
2022-10-19T00:41:03.739Z,9.80
2022-10-19T00:42:05.863Z,11.86
2022-10-19T00:44:32.830Z,7.95
2022-10-19T00:45:34.776Z,9.01
2022-10-19T00:46:42.514Z,8.57
2022-10-19T00:47:46.278Z,12.03
2022-10-19T00:49:52.002Z,10.84
2022-10-19T00:50:57.290Z,12.85
2022-10-19T00:52:03.093Z,12.65
2022-10-19T00:53:05.534Z,9.06
2022-10-19T00:54:08.697Z,10.11
2022-10-19T00:55:11.264Z,12.52
2022-10-19T00:56:16.308Z,7.53
2022-10-19T00:57:18.600Z,9.99
2022-10-19T00:58:20.793Z,11.45
2022-10-19T00:59:24.299Z,10.38
2022-10-19T01:00:27.213Z,10.54
2022-10-19T01:01:30.750Z,12.25
2022-10-19T01:02:33.532Z,9.79
2022-10-19T01:03:35.819Z,13.64
2022-10-19T01:04:41.480Z,10.72
2022-10-19T01:05:43.997Z,10.60
2022-10-19T01:06:46.145Z,9.76
2022-10-19T01:07:48.985Z,10.94
2022-10-19T01:08:50.895Z,9.63
2022-10-19T01:09:54.177Z,11.06
2022-10-19T01:11:23.396Z,11.36
2022-10-19T01:12:57.806Z,8.98
2022-10-19T01:14:18.891Z,10.07
2022-10-19T01:15:33.916Z,13.73
2022-10-19T01:16:52.035Z,9.62
2022-10-19T01:18:18.769Z,8.48
2022-10-19T01:19:43.105Z,9.44
2022-10-19T01:21:10.306Z,15.77
2022-10-19T01:22:41.784Z,10.16
2022-10-19T01:25:49.792Z,10.29
2022-10-19T01:27:13.696Z,17.07
2022-10-19T01:28:34.250Z,14.14
2022-10-19T01:30:02.968Z,13.32
2022-10-19T01:31:08.653Z,8.38
2022-10-19T01:32:14.338Z,9.23
2022-10-19T01:33:52.077Z,14.37
2022-10-19T01:35:00.619Z,11.29
2022-10-19T01:36:09.690Z,10.53
2022-10-19T01:37:33.877Z,11.59
2022-10-19T01:38:55.176Z,11.23
2022-10-19T01:40:16.274Z,18.91
2022-10-19T01:41:52.072Z,36.47
2022-10-19T01:43:23.958Z,11.53
2022-10-19T01:46:03.588Z,11.94
2022-10-19T01:47:11.980Z,9.79
2022-10-19T01:52:17.017Z,12.07
2022-10-19T01:53:20.423Z,12.97
2022-10-19T01:54:25.125Z,11.44
2022-10-19T01:55:28.123Z,10.27
2022-10-19T01:56:33.328Z,13.21
2022-10-19T01:57:39.014Z,12.83
2022-10-19T01:58:43.744Z,12.46
2022-10-19T01:59:48.711Z,10.45
2022-10-19T02:00:54.035Z,11.30
2022-10-19T02:01:58.096Z,10.66
2022-10-19T02:03:01.370Z,11.22
2022-10-19T02:04:04.811Z,12.71
2022-10-19T02:05:08.323Z,8.80
2022-10-19T02:06:12.457Z,10.20
2022-10-19T02:07:15.712Z,9.21
2022-10-19T02:08:33.925Z,12.94
2022-10-19T02:09:36.331Z,11.67
2022-10-19T02:10:41.109Z,9.61
2022-10-19T02:11:56.158Z,9.79
2022-10-19T02:12:58.123Z,10.49
2022-10-19T02:14:07.126Z,9.44
2022-10-19T02:15:12.495Z,13.83
2022-10-19T02:16:21.224Z,8.92
2022-10-19T02:17:29.941Z,12.03
2022-10-19T02:18:35.699Z,8.83
2022-10-19T02:19:38.138Z,13.46
2022-10-19T02:20:40.144Z,11.35
2022-10-19T02:21:42.261Z,9.19
2022-10-19T02:22:44.702Z,12.69
2022-10-19T02:23:48.343Z,9.79
2022-10-19T02:24:50.694Z,9.15
2022-10-19T02:25:54.164Z,10.06
2022-10-19T02:26:56.785Z,12.74
2022-10-19T02:28:00.618Z,9.48
2022-10-19T02:29:03.003Z,9.32
2022-10-19T02:30:06.497Z,11.71
2022-10-19T02:31:08.825Z,15.59
2022-10-19T02:32:11.426Z,11.23
2022-10-19T02:33:14.971Z,9.19
2022-10-19T02:34:23.149Z,13.53
2022-10-19T02:35:26.009Z,16.44
2022-10-19T02:36:28.283Z,10.45
2022-10-19T02:37:30.434Z,14.23
2022-10-19T02:38:33.453Z,9.17
2022-10-19T02:39:36.837Z,12.38
2022-10-19T02:40:42.639Z,8.91
2022-10-19T02:41:58.867Z,11.22
2022-10-19T02:43:07.559Z,13.05
2022-10-19T02:44:13.388Z,12.78
2022-10-19T02:45:27.620Z,11.38
2022-10-19T02:48:00.922Z,9.21
2022-10-19T02:49:05.714Z,12.49
2022-10-19T02:50:09.922Z,10.69
2022-10-19T02:51:33.522Z,12.14
2022-10-19T02:52:40.281Z,10.47
2022-10-19T02:53:42.193Z,11.94
2022-10-19T02:54:44.770Z,9.65
2022-10-19T02:55:48.990Z,11.01
2022-10-19T02:56:51.382Z,13.95
2022-10-19T02:57:53.264Z,11.63
2022-10-19T02:58:56.044Z,15.59
2022-10-19T02:59:58.240Z,10.38
2022-10-19T03:01:00.458Z,9.83
2022-10-19T03:02:02.417Z,11.63
2022-10-19T03:03:04.602Z,10.15
2022-10-19T03:04:06.747Z,12.19
2022-10-19T03:05:09.477Z,10.99
2022-10-19T03:06:12.146Z,11.46
2022-10-19T03:07:16.518Z,11.46
2022-10-19T03:08:18.494Z,12.14
2022-10-19T03:09:20.549Z,11.56
2022-10-19T03:10:23.179Z,12.24
2022-10-19T03:11:25.649Z,13.49
2022-10-19T03:12:27.957Z,10.49
2022-10-19T03:13:30.073Z,12.98
2022-10-19T03:14:32.312Z,10.71
2022-10-19T03:15:34.249Z,9.35
2022-10-19T03:16:36.358Z,12.46
2022-10-19T03:17:38.624Z,11.90
2022-10-19T03:18:40.649Z,15.61
2022-10-19T03:19:42.822Z,13.29
2022-10-19T03:20:44.872Z,9.68
2022-10-19T03:21:46.796Z,13.49
2022-10-19T03:22:49.529Z,11.31
2022-10-19T03:23:51.546Z,10.72
2022-10-19T03:24:53.423Z,12.99
2022-10-19T03:25:55.330Z,10.83
2022-10-19T03:26:59.360Z,9.23
2022-10-19T03:28:01.855Z,10.78
2022-10-19T03:29:04.313Z,11.12
2022-10-19T03:30:07.879Z,11.73
2022-10-19T03:31:09.898Z,11.42
2022-10-19T03:32:13.726Z,13.73
2022-10-19T03:33:18.600Z,10.60
2022-10-19T03:34:20.718Z,11.03
2022-10-19T03:35:22.714Z,10.37
2022-10-19T03:36:31.096Z,11.78
2022-10-19T03:37:33.805Z,14.87
2022-10-19T03:38:37.311Z,10.61
2022-10-19T03:39:39.354Z,15.28
2022-10-19T03:40:41.868Z,14.57
2022-10-19T03:41:45.069Z,12.49
2022-10-19T03:42:46.974Z,14.35
2022-10-19T03:43:51.836Z,13.01
2022-10-19T03:44:54.146Z,12.94
2022-10-19T03:45:56.258Z,10.61
2022-10-19T03:46:58.239Z,13.47
2022-10-19T03:48:00.371Z,15.36
2022-10-19T03:49:02.980Z,10.94
2022-10-19T03:50:06.632Z,12.05
2022-10-19T03:51:11.950Z,13.45
2022-10-19T03:52:13.890Z,12.84
2022-10-19T03:53:17.840Z,15.83
2022-10-19T03:54:22.505Z,14.62
2022-10-19T03:55:23.977Z,13.29
2022-10-19T03:56:28.005Z,11.41
2022-10-19T03:57:33.340Z,14.56
2022-10-19T03:58:36.809Z,13.96
2022-10-19T03:59:52.539Z,11.78
2022-10-19T04:00:54.997Z,17.09
2022-10-19T04:01:56.912Z,13.23
2022-10-19T04:03:02.925Z,17.46
2022-10-19T04:05:18.260Z,16.82
2022-10-19T04:06:28.128Z,13.78
2022-10-19T04:07:35.456Z,14.13
2022-10-19T04:08:37.990Z,14.72
2022-10-19T04:09:40.375Z,13.17
2022-10-19T04:11:00.328Z,15.25
2022-10-19T04:12:07.195Z,15.77
2022-10-19T04:13:17.994Z,20.03
2022-10-19T04:17:09.995Z,17.67
2022-10-19T04:18:16.191Z,18.74
2022-10-19T04:19:20.145Z,14.23
2022-10-19T04:20:24.659Z,12.35
2022-10-19T04:22:42.550Z,17.06
2022-10-19T04:23:44.449Z,14.55
2022-10-19T04:24:46.355Z,13.67
2022-10-19T04:25:48.267Z,14.83
2022-10-19T04:26:52.580Z,18.68
2022-10-19T04:27:54.541Z,17.41
2022-10-19T04:28:58.135Z,12.00
2022-10-19T04:30:00.183Z,14.66
2022-10-19T04:31:03.869Z,11.05
2022-10-19T04:32:05.953Z,13.70
2022-10-19T04:33:07.842Z,15.41
2022-10-19T04:34:10.686Z,15.29
2022-10-19T04:35:12.652Z,13.21
2022-10-19T04:36:15.763Z,17.21
2022-10-19T04:37:17.840Z,14.48
2022-10-19T04:38:19.783Z,16.35
2022-10-19T04:39:21.680Z,13.35
2022-10-19T04:40:23.763Z,15.59
2022-10-19T04:41:25.851Z,16.45
2022-10-19T04:42:27.819Z,17.65
2022-10-19T04:43:29.997Z,15.65
2022-10-19T04:44:31.898Z,15.47
2022-10-19T04:45:34.968Z,18.60
2022-10-19T04:46:37.181Z,17.55
2022-10-19T04:47:39.085Z,18.65
2022-10-19T04:48:42.194Z,21.77
2022-10-19T04:49:44.146Z,19.12
2022-10-19T04:50:46.221Z,14.01
2022-10-19T04:51:48.099Z,13.43
2022-10-19T04:52:50.489Z,14.75
2022-10-19T04:53:54.483Z,18.15
2022-10-19T04:54:57.168Z,15.64
2022-10-19T04:56:07.432Z,15.54
2022-10-19T04:57:09.356Z,21.46
2022-10-19T04:58:11.336Z,15.73
2022-10-19T04:59:13.267Z,14.85
2022-10-19T05:00:16.189Z,17.18
2022-10-19T05:01:20.687Z,15.27
2022-10-19T05:02:22.813Z,17.40
2022-10-19T05:03:24.783Z,20.18
2022-10-19T05:04:26.662Z,17.52
2022-10-19T05:05:28.568Z,18.11
2022-10-19T05:06:31.387Z,15.20
2022-10-19T05:07:33.817Z,17.00
2022-10-19T05:08:36.439Z,20.20
2022-10-19T05:09:38.319Z,17.75
2022-10-19T05:10:44.250Z,18.28
2022-10-19T05:11:44.763Z,18.18
2022-10-19T05:12:46.657Z,16.61
2022-10-19T05:13:49.319Z,19.88
2022-10-19T05:14:51.235Z,25.75
2022-10-19T05:15:57.156Z,19.27
2022-10-19T05:16:59.387Z,14.19
2022-10-19T05:18:01.258Z,12.19
2022-10-19T05:19:03.135Z,15.81
2022-10-19T05:20:07.174Z,16.63
2022-10-19T05:21:13.397Z,14.55
2022-10-19T05:22:15.447Z,16.69
2022-10-19T05:23:17.435Z,18.72
2022-10-19T05:24:19.402Z,18.19
2022-10-19T05:25:21.379Z,15.36
2022-10-19T05:26:27.783Z,17.07
2022-10-19T05:27:29.743Z,18.11
2022-10-19T05:28:32.059Z,15.07
2022-10-19T05:29:34.317Z,18.79
2022-10-19T05:30:36.426Z,29.37
2022-10-19T05:31:40.516Z,20.34
2022-10-19T05:32:44.546Z,16.55
2022-10-19T05:33:52.007Z,13.98
2022-10-19T05:34:53.990Z,16.37
2022-10-19T05:35:55.859Z,17.37
2022-10-19T05:37:00.526Z,16.15
2022-10-19T05:38:02.613Z,14.52
2022-10-19T05:39:09.067Z,14.39
2022-10-19T05:40:11.722Z,17.01
2022-10-19T05:41:15.468Z,18.93
2022-10-19T05:42:17.409Z,15.43
2022-10-19T05:43:19.280Z,20.79
2022-10-19T05:44:23.067Z,20.24
2022-10-19T05:45:24.983Z,17.12
2022-10-19T05:46:29.503Z,16.60
2022-10-19T05:47:33.705Z,15.72
2022-10-19T05:48:36.905Z,17.95
2022-10-19T05:49:38.929Z,15.01
2022-10-19T05:50:44.882Z,17.20
2022-10-19T05:51:47.927Z,16.79
2022-10-19T05:52:49.861Z,17.62
2022-10-19T05:53:56.162Z,15.25
2022-10-19T05:54:58.095Z,17.62
2022-10-19T05:56:00.638Z,13.59
2022-10-19T05:57:02.756Z,16.19
2022-10-19T05:58:04.635Z,14.37
2022-10-19T05:59:08.040Z,14.53
2022-10-19T06:00:11.447Z,17.96
2022-10-19T06:01:14.531Z,13.99
2022-10-19T06:02:16.543Z,17.78
2022-10-19T06:03:19.089Z,20.13
2022-10-19T06:04:21.219Z,20.54
2022-10-19T06:05:23.116Z,15.03
2022-10-19T06:06:26.240Z,16.35
2022-10-19T06:07:28.150Z,15.81
2022-10-19T06:08:30.299Z,20.28
2022-10-19T06:09:32.219Z,14.65
2022-10-19T06:10:37.136Z,13.65
2022-10-19T06:11:40.725Z,14.32
2022-10-19T06:12:42.916Z,13.74
2022-10-19T06:13:47.462Z,14.19
2022-10-19T06:14:52.138Z,14.97
2022-10-19T06:15:54.079Z,29.26
2022-10-19T06:16:57.898Z,11.96
2022-10-19T06:17:59.796Z,12.39
2022-10-19T06:19:02.144Z,15.84
2022-10-19T06:20:07.152Z,9.74
2022-10-19T06:21:15.516Z,11.76
2022-10-19T06:22:17.524Z,10.28
2022-10-19T06:23:19.710Z,20.97
2022-10-19T06:24:21.619Z,8.97
2022-10-19T06:25:23.980Z,11.33
2022-10-19T06:26:27.686Z,10.77
2022-10-19T06:27:31.739Z,16.44
2022-10-19T06:28:35.464Z,10.33
2022-10-19T06:29:37.477Z,12.68
2022-10-19T06:30:40.839Z,7.76
2022-10-19T06:31:44.944Z,8.54
2022-10-19T06:32:46.922Z,11.49
2022-10-19T06:33:49.632Z,7.55
2022-10-19T06:34:56.461Z,6.84
2022-10-19T06:35:55.852Z,8.55
2022-10-19T06:36:57.982Z,7.49
2022-10-19T06:38:00.260Z,12.24
2022-10-19T06:39:02.844Z,9.73
2022-10-19T06:40:07.192Z,5.08
2022-10-19T06:41:11.182Z,7.14
2022-10-19T06:42:13.128Z,6.56
2022-10-19T06:43:15.517Z,4.66
2022-10-19T06:44:18.014Z,6.09
2022-10-19T06:45:20.072Z,6.37
2022-10-19T06:46:27.854Z,9.02
2022-10-19T06:47:30.038Z,7.48
2022-10-19T06:48:32.382Z,9.26
2022-10-19T06:49:34.395Z,9.30
2022-10-19T06:50:36.776Z,7.06
2022-10-19T06:51:38.733Z,11.71
2022-10-19T06:52:40.638Z,7.56
2022-10-19T06:53:44.581Z,9.54
2022-10-19T06:54:48.365Z,6.02
2022-10-19T06:55:50.367Z,4.56
2022-10-19T06:56:52.653Z,5.45
2022-10-19T06:57:58.534Z,5.73
2022-10-19T06:59:00.513Z,3.83
2022-10-19T07:00:04.283Z,4.07
2022-10-19T07:01:08.448Z,4.19
2022-10-19T07:02:11.598Z,7.19
2022-10-19T07:03:13.505Z,4.50
2022-10-19T07:04:17.729Z,5.88
2022-10-19T07:05:19.811Z,7.21
2022-10-19T07:06:23.216Z,3.83
2022-10-19T07:07:25.228Z,5.52
2022-10-19T07:08:29.319Z,4.41
2022-10-19T07:09:31.228Z,3.28
2022-10-19T07:10:33.225Z,6.89
2022-10-19T07:11:35.113Z,3.53
2022-10-19T07:12:37.256Z,6.36
2022-10-19T07:13:39.262Z,8.79
2022-10-19T07:14:41.141Z,4.69
2022-10-19T07:15:43.316Z,5.65
2022-10-19T07:16:45.287Z,5.61
2022-10-19T07:17:47.428Z,5.30
2022-10-19T07:18:51.520Z,3.01
2022-10-19T07:19:53.485Z,5.63
2022-10-19T07:22:12.620Z,2.99
2022-10-19T07:23:14.555Z,5.55
2022-10-19T07:24:17.125Z,6.21
2022-10-19T07:25:20.452Z,4.54
2022-10-19T07:26:25.440Z,4.17
2022-10-19T07:27:35.272Z,3.15
2022-10-19T07:28:35.035Z,2.77
2022-10-19T07:29:43.107Z,3.11
2022-10-19T07:30:45.322Z,3.98
2022-10-19T07:31:47.655Z,1.95
2022-10-19T07:32:49.628Z,2.34
2022-10-19T07:33:54.505Z,2.94
2022-10-19T07:34:56.495Z,3.55
2022-10-19T07:36:01.166Z,3.99
2022-10-19T07:37:03.080Z,3.33
2022-10-19T07:38:05.281Z,3.25
2022-10-19T07:39:07.241Z,4.04
2022-10-19T07:40:11.300Z,2.01
2022-10-19T07:41:19.373Z,4.08
2022-10-19T07:43:25.333Z,8.84
2022-10-19T07:44:27.556Z,3.43
2022-10-19T07:45:29.728Z,2.78
2022-10-19T07:46:33.489Z,5.56
2022-10-19T07:47:35.850Z,5.17
2022-10-19T07:48:38.025Z,6.07
2022-10-19T07:49:40.265Z,5.69
2022-10-19T07:50:46.040Z,9.47
2022-10-19T07:51:48.208Z,7.60
2022-10-19T07:52:56.235Z,3.34
2022-10-19T07:53:58.721Z,3.18
2022-10-19T07:55:00.934Z,1.74
2022-10-19T07:56:08.552Z,1.95
2022-10-19T07:57:11.590Z,3.82
2022-10-19T07:58:13.905Z,1.95
2022-10-19T07:59:15.900Z,5.63
2022-10-19T08:00:18.755Z,2.27
2022-10-19T08:01:23.591Z,2.16
2022-10-19T08:02:34.993Z,4.27
2022-10-19T08:05:42.618Z,2.93
2022-10-19T08:06:44.996Z,4.53
2022-10-19T08:07:47.070Z,3.81
2022-10-19T08:08:49.724Z,3.81
2022-10-19T08:09:54.143Z,6.23
2022-10-19T08:10:57.482Z,7.64
2022-10-19T08:11:59.406Z,4.94
2022-10-19T08:13:01.332Z,5.76
2022-10-19T08:14:07.850Z,5.43
2022-10-19T08:15:09.987Z,7.99
2022-10-19T08:16:28.001Z,3.75
2022-10-19T08:17:30.095Z,3.17
2022-10-19T08:19:33.848Z,2.91
2022-10-19T08:20:36.176Z,4.31
2022-10-19T08:21:40.060Z,6.83
2022-10-19T08:22:41.981Z,6.07
2022-10-19T08:23:44.063Z,4.02
2022-10-19T08:24:45.954Z,3.71
2022-10-19T08:25:48.647Z,2.27
2022-10-19T08:26:50.653Z,3.48
2022-10-19T08:27:52.586Z,5.07
2022-10-19T08:29:03.341Z,7.17
2022-10-19T08:30:06.289Z,2.99
2022-10-19T08:31:17.570Z,6.72
2022-10-19T08:33:21.267Z,9.59
2022-10-19T08:34:23.411Z,4.59
2022-10-19T08:35:25.303Z,6.93
2022-10-19T08:36:27.572Z,7.75
2022-10-19T08:37:44.348Z,4.02
2022-10-19T08:38:37.141Z,20.08
2022-10-19T08:39:39.053Z,7.21
2022-10-19T08:40:44.437Z,3.43
2022-10-19T08:42:05.384Z,5.49
2022-10-19T08:43:20.222Z,5.16
2022-10-19T08:44:25.938Z,5.12
2022-10-19T08:47:02.760Z,4.84
2022-10-19T08:48:25.894Z,5.68
2022-10-19T08:49:30.976Z,6.31
2022-10-19T08:50:39.038Z,3.64
2022-10-19T08:51:43.563Z,4.44
2022-10-19T08:52:49.239Z,4.88
2022-10-19T08:53:57.392Z,3.25
2022-10-19T08:56:38.956Z,8.42
2022-10-19T08:57:52.070Z,4.43
2022-10-19T08:59:22.461Z,4.54
2022-10-19T09:00:45.593Z,4.13
2022-10-19T09:01:57.782Z,4.19
2022-10-19T09:03:37.674Z,3.88
2022-10-19T09:04:42.164Z,3.77
2022-10-19T09:05:47.948Z,4.54
2022-10-19T09:06:56.605Z,3.69
2022-10-19T09:07:59.225Z,3.06
2022-10-19T09:09:01.300Z,2.87
2022-10-19T09:10:21.829Z,3.19
2022-10-19T09:11:33.795Z,5.37
2022-10-19T09:12:58.553Z,12.07
2022-10-19T09:14:16.813Z,4.31
2022-10-19T09:15:22.600Z,6.33
2022-10-19T09:16:25.121Z,3.16
2022-10-19T09:17:28.331Z,4.61
2022-10-19T09:18:34.963Z,6.32
2022-10-19T09:19:36.913Z,2.76
2022-10-19T09:20:42.805Z,1.81
2022-10-19T09:21:48.686Z,6.48
2022-10-19T09:23:03.378Z,2.42
2022-10-19T09:24:08.328Z,2.14
2022-10-19T09:25:17.040Z,1.49
2022-10-19T09:26:22.928Z,3.45
2022-10-19T09:27:30.608Z,2.43
2022-10-19T09:28:53.863Z,5.53
2022-10-19T09:29:57.963Z,2.32
2022-10-19T09:31:00.766Z,11.87
2022-10-19T09:32:06.133Z,2.01
2022-10-19T09:33:15.325Z,5.40
2022-10-19T09:34:19.424Z,3.71
2022-10-19T09:35:34.458Z,4.48
2022-10-19T09:36:50.485Z,2.38
2022-10-19T09:37:51.194Z,1.94
2022-10-19T09:38:53.310Z,3.35
2022-10-19T09:39:56.251Z,3.81
2022-10-19T09:41:00.661Z,3.47
2022-10-19T09:42:12.260Z,5.32
2022-10-19T09:43:14.789Z,2.57
2022-10-19T09:44:17.593Z,5.83
2022-10-19T09:45:35.056Z,5.20
2022-10-19T09:46:56.275Z,3.67
2022-10-19T09:48:07.059Z,3.26
2022-10-19T09:49:05.649Z,5.03
2022-10-19T09:50:25.352Z,4.30
2022-10-19T09:51:33.945Z,1.77
2022-10-19T09:52:41.683Z,1.97
2022-10-19T09:53:45.664Z,1.88
2022-10-19T09:54:51.447Z,2.78
2022-10-19T09:56:05.654Z,1.98
2022-10-19T09:57:11.393Z,2.54
2022-10-19T09:58:18.759Z,4.18
2022-10-19T09:59:23.214Z,3.28
2022-10-19T10:00:35.096Z,2.52
2022-10-19T10:01:43.107Z,1.65
2022-10-19T10:02:52.614Z,2.63
2022-10-19T10:04:10.382Z,3.19
2022-10-19T10:05:15.889Z,4.28
2022-10-19T10:06:20.427Z,2.37
2022-10-19T10:07:26.092Z,3.49
2022-10-19T11:12:39.883Z,4.27
2022-10-19T11:15:04.365Z,3.68
2022-10-19T11:16:15.999Z,8.64
2022-10-19T11:18:31.164Z,5.17
2022-10-19T11:19:44.668Z,3.31
2022-10-19T11:22:41.942Z,3.55
2022-10-19T11:24:05.941Z,4.23
2022-10-19T11:25:39.377Z,3.70
2022-10-19T11:26:54.109Z,2.62
2022-10-19T11:27:59.830Z,4.18
2022-10-19T11:29:25.406Z,2.20
2022-10-19T11:30:31.363Z,3.67
2022-10-19T11:31:46.119Z,6.71
2022-10-19T11:33:06.657Z,2.43
2022-10-19T11:34:37.065Z,4.97
2022-10-19T11:35:45.919Z,13.91
2022-10-19T11:37:12.777Z,6.73
2022-10-19T11:38:23.361Z,2.44
2022-10-19T11:39:34.940Z,4.20
2022-10-19T11:40:59.685Z,4.49
2022-10-19T11:42:17.122Z,5.63
2022-10-19T11:43:41.197Z,4.79
2022-10-19T11:58:05.280Z,10.39
2022-10-19T12:02:07.630Z,3.78
2022-10-19T12:03:30.665Z,14.64
2022-10-19T12:04:38.926Z,6.02
2022-10-19T12:06:01.310Z,9.18
2022-10-19T12:07:18.744Z,9.68
2022-10-19T12:08:46.013Z,12.43
2022-10-19T12:11:08.415Z,8.77
2022-10-19T12:12:26.115Z,5.71
2022-10-19T12:13:43.722Z,5.39
2022-10-19T12:14:49.397Z,5.10
2022-10-19T12:15:54.608Z,2.69
2022-10-19T12:17:00.475Z,3.42
2022-10-19T12:18:35.524Z,3.35
2022-10-19T12:19:44.383Z,4.79
2022-10-19T12:20:50.186Z,3.55
2022-10-19T12:22:01.777Z,4.52
2022-10-19T12:23:07.488Z,3.05
2022-10-19T12:24:19.239Z,9.49
2022-10-19T12:25:21.666Z,3.26
2022-10-19T12:26:26.956Z,3.87
2022-10-19T12:27:35.423Z,6.89
2022-10-19T12:28:41.358Z,5.28
2022-10-19T12:29:47.020Z,3.46
2022-10-19T12:30:50.963Z,6.85
2022-10-19T12:31:54.896Z,5.49
2022-10-19T12:33:22.369Z,10.18
2022-10-19T12:34:31.087Z,7.41
2022-10-19T12:35:45.824Z,4.77
2022-10-19T12:37:13.952Z,4.93
2022-10-19T12:38:19.894Z,5.84
2022-10-19T12:39:34.659Z,2.22
2022-10-19T12:40:40.647Z,4.04
2022-10-19T12:41:52.145Z,3.79
2022-10-19T12:43:21.159Z,6.38
2022-10-19T12:44:45.489Z,15.38
2022-10-19T12:47:19.154Z,9.24
2022-10-19T12:48:22.576Z,6.31
2022-10-19T12:49:34.056Z,2.94
2022-10-19T12:50:52.104Z,11.12
2022-10-19T12:51:55.963Z,5.58
2022-10-19T12:52:58.149Z,5.35
2022-10-19T12:54:08.589Z,2.57
2022-10-19T12:55:28.755Z,3.47
2022-10-19T12:56:31.028Z,3.20
2022-10-19T12:57:33.230Z,2.39
2022-10-19T12:58:47.624Z,5.61
2022-10-19T12:59:58.586Z,2.67
2022-10-19T13:01:04.092Z,4.92
2022-10-19T13:02:10.235Z,3.73
2022-10-19T13:03:15.572Z,7.43
2022-10-19T13:04:23.632Z,2.87
2022-10-19T13:05:28.696Z,4.36
2022-10-19T13:06:34.784Z,7.05
2022-10-19T13:07:37.438Z,5.51
2022-10-19T13:08:49.391Z,13.19
2022-10-19T13:09:55.109Z,6.92
2022-10-19T13:11:14.301Z,7.58
2022-10-19T13:12:23.565Z,6.39
2022-10-19T13:13:59.436Z,5.36
2022-10-19T13:15:04.295Z,7.15
2022-10-19T13:16:27.454Z,7.52
2022-10-19T13:17:38.744Z,5.42
2022-10-19T13:19:15.196Z,6.92
2022-10-19T13:22:49.194Z,7.33
2022-10-19T13:23:51.321Z,8.02
2022-10-19T13:25:18.545Z,3.55
2022-10-19T13:26:33.480Z,5.02
2022-10-19T13:27:37.697Z,6.96
2022-10-19T13:28:43.659Z,4.84
2022-10-19T13:29:45.697Z,5.85
2022-10-19T13:30:51.544Z,6.33
2022-10-19T13:31:53.862Z,6.09
2022-10-19T13:32:55.854Z,2.75
2022-10-19T13:33:58.551Z,4.42
2022-10-19T13:35:27.460Z,5.09
2022-10-19T13:36:30.873Z,5.23
2022-10-19T13:37:34.812Z,4.36
2022-10-19T13:38:43.892Z,3.04
2022-10-19T13:39:47.239Z,7.42
2022-10-19T13:40:52.986Z,3.86
2022-10-19T13:41:55.674Z,4.43
2022-10-19T13:42:58.286Z,6.47
2022-10-19T13:44:10.124Z,2.70
2022-10-19T13:45:24.957Z,3.92
2022-10-19T13:46:34.068Z,4.43
2022-10-19T13:47:39.900Z,5.12
2022-10-19T13:49:02.264Z,4.41
2022-10-19T13:50:08.066Z,3.90
2022-10-19T13:52:44.867Z,6.06
2022-10-19T13:54:07.535Z,3.82
2022-10-19T13:55:22.497Z,7.04
2022-10-19T13:57:02.572Z,4.12
2022-10-19T13:58:24.943Z,4.67
2022-10-19T13:59:49.340Z,3.77
2022-10-19T14:01:12.022Z,5.07
2022-10-19T14:02:36.432Z,5.71
2022-10-19T14:03:57.929Z,3.66
2022-10-19T14:05:12.863Z,5.63
2022-10-19T14:06:28.360Z,5.24
2022-10-19T14:07:42.401Z,5.87
2022-10-19T14:09:00.281Z,8.59
2022-10-19T14:11:37.085Z,7.47
2022-10-19T14:12:41.989Z,7.45
2022-10-19T14:13:45.145Z,5.71
2022-10-19T14:14:47.326Z,8.83
2022-10-19T14:15:52.157Z,7.21
2022-10-19T14:17:04.069Z,5.77
2022-10-19T14:18:22.579Z,9.23
2022-10-19T14:19:31.284Z,5.92
2022-10-19T14:20:36.804Z,5.57
2022-10-19T14:21:38.806Z,8.07
2022-10-19T14:22:40.697Z,4.21
2022-10-19T14:23:42.898Z,9.17
2022-10-19T14:24:45.282Z,11.63
2022-10-19T14:25:53.280Z,22.35
2022-10-19T14:26:58.111Z,5.13
2022-10-19T14:28:03.005Z,6.65
2022-10-19T14:29:05.599Z,8.17
2022-10-19T14:30:23.465Z,3.95
2022-10-19T14:31:29.126Z,4.76
2022-10-19T14:32:33.171Z,3.85
2022-10-19T14:33:41.284Z,4.23
2022-10-19T14:34:45.998Z,2.54
2022-10-19T14:35:52.017Z,3.45
2022-10-19T14:36:54.376Z,4.79
2022-10-19T14:37:57.366Z,5.91
2022-10-19T14:38:59.605Z,6.01
2022-10-19T14:40:08.500Z,10.57
2022-10-19T14:41:29.698Z,16.81
2022-10-19T14:42:41.059Z,11.33
2022-10-19T14:43:42.994Z,5.25
2022-10-19T14:44:44.989Z,4.88
2022-10-19T14:46:08.912Z,3.40
2022-10-19T14:47:24.505Z,3.24
2022-10-19T14:48:26.574Z,4.22
2022-10-19T14:49:28.848Z,2.83
2022-10-19T14:50:52.924Z,6.01
2022-10-19T14:52:01.652Z,5.48
2022-10-19T14:54:21.085Z,4.83
2022-10-19T14:55:24.113Z,6.14
2022-10-19T14:56:35.949Z,6.19
2022-10-19T14:57:40.908Z,6.17
2022-10-19T14:58:52.700Z,2.90
2022-10-19T15:00:04.165Z,4.26
2022-10-19T15:01:07.243Z,5.84
2022-10-19T15:02:22.127Z,5.39
2022-10-19T15:03:29.061Z,6.46
2022-10-19T15:04:34.876Z,3.80
2022-10-19T15:05:40.560Z,3.92
2022-10-19T15:06:43.077Z,7.31
2022-10-19T15:07:45.533Z,5.45
2022-10-19T15:08:51.361Z,4.42
2022-10-19T15:09:56.001Z,2.93
2022-10-19T15:10:58.136Z,7.42
2022-10-19T15:12:06.315Z,9.45
2022-10-19T15:13:12.028Z,7.15
2022-10-19T15:14:17.842Z,5.23
2022-10-19T15:15:29.778Z,4.31
2022-10-19T15:16:53.958Z,6.26
2022-10-19T15:18:02.677Z,4.87
2022-10-19T15:19:08.205Z,4.51
2022-10-19T15:20:29.377Z,5.43
2022-10-19T15:21:33.561Z,6.80
2022-10-19T15:22:38.953Z,4.85
2022-10-19T15:23:49.885Z,5.44
2022-10-19T15:25:04.041Z,8.39
2022-10-19T15:26:18.465Z,4.78
2022-10-19T15:27:22.719Z,4.85
2022-10-19T15:28:39.150Z,6.21
2022-10-19T15:29:42.284Z,4.76
2022-10-19T15:30:47.050Z,6.24
2022-10-19T15:31:50.065Z,4.68
2022-10-19T15:33:04.832Z,5.53
2022-10-19T15:34:10.617Z,4.73
2022-10-19T15:35:19.347Z,4.02
2022-10-19T15:36:23.473Z,4.24
2022-10-19T15:38:29.125Z,4.26
2022-10-19T15:39:39.736Z,8.76
2022-10-19T15:40:40.020Z,13.03
2022-10-19T15:41:42.197Z,9.05
2022-10-19T15:42:44.098Z,8.14
2022-10-19T15:43:52.043Z,8.63
2022-10-19T15:44:54.249Z,17.73
2022-10-19T15:46:14.549Z,9.28
2022-10-19T15:47:20.173Z,7.44
2022-10-19T15:48:25.953Z,10.65
2022-10-19T15:49:43.019Z,12.46
2022-10-19T15:50:47.944Z,10.49
2022-10-19T15:51:50.081Z,9.53
2022-10-19T15:52:51.968Z,9.25
2022-10-19T15:53:56.411Z,7.02
2022-10-19T15:55:00.054Z,7.39
2022-10-19T15:57:08.064Z,6.93
2022-10-19T15:58:12.036Z,6.88
2022-10-19T15:59:16.891Z,8.52
2022-10-19T16:00:20.532Z,6.14
2022-10-19T16:01:29.439Z,5.09
2022-10-19T16:02:31.670Z,4.07
2022-10-19T16:03:33.763Z,6.91
2022-10-19T16:04:35.671Z,5.09
2022-10-19T16:05:37.550Z,6.68
2022-10-19T16:06:42.924Z,6.51
2022-10-19T16:07:45.076Z,8.64
2022-10-19T16:08:47.185Z,11.64
2022-10-19T16:09:49.471Z,11.71
2022-10-19T16:10:51.448Z,13.07
2022-10-19T16:11:53.323Z,16.63
2022-10-19T16:12:55.516Z,10.16
2022-10-19T16:13:57.563Z,7.25
2022-10-19T16:14:59.481Z,7.35
2022-10-19T16:16:11.236Z,7.55
2022-10-19T16:17:12.553Z,5.99
2022-10-19T16:18:14.459Z,4.34
2022-10-19T16:19:16.557Z,2.26
2022-10-19T16:20:20.034Z,6.08
2022-10-19T16:21:25.816Z,7.26
2022-10-19T16:22:27.897Z,4.58
2022-10-19T16:23:29.915Z,6.07
2022-10-19T16:24:31.865Z,5.70
2022-10-19T16:25:34.044Z,5.57
2022-10-19T16:26:36.244Z,6.53
2022-10-19T16:27:38.232Z,4.23
2022-10-19T16:28:40.489Z,4.11
2022-10-19T16:29:43.660Z,5.95
2022-10-19T16:30:51.241Z,3.94
2022-10-19T16:31:53.404Z,3.63
2022-10-19T16:32:55.282Z,5.65
2022-10-19T16:33:57.284Z,3.14
2022-10-19T16:34:59.279Z,3.95